Time;durP1;ratioP1;P1;durP2;ratioP2;P2;SDS_P1;SDS_P2;PMS_P1;PMS_P2;Temp;Humidity;BMP_temperature;BMP_pressure;BME280_temperature;BME280_humidity;BME280_pressure;Samples;Min_cycle;Max_cycle;Signal;HPM_P1;HPM_P2
2021/11/10 00:01:13;;;;;;;11.90;8.50;;;6.00;99.90;;;;;;6278687;28;20786;-65
2021/11/10 00:04:18;;;;;;;7.43;6.83;;;6.10;99.90;;;;;;6278361;28;20808;-67
2021/11/10 00:07:21;;;;;;;12.77;6.50;;;6.00;99.90;;;;;;6278480;28;20469;-64
2021/11/10 00:10:24;;;;;;;11.53;6.90;;;6.00;99.90;;;;;;6278634;28;20473;-65
2021/11/10 00:13:27;;;;;;;8.37;7.57;;;6.00;99.90;;;;;;6278376;28;20469;-64
2021/11/10 00:16:31;;;;;;;9.53;7.37;;;6.00;99.90;;;;;;6278135;28;20481;-64
2021/11/10 00:19:36;;;;;;;8.10;7.40;;;5.90;99.90;;;;;;6278533;28;20469;-64
2021/11/10 00:22:40;;;;;;;8.13;7.30;;;5.90;99.90;;;;;;6277976;28;20981;-64
2021/11/10 00:25:43;;;;;;;10.93;8.10;;;5.90;99.90;;;;;;6278230;28;20488;-68
2021/11/10 00:28:47;;;;;;;10.73;9.47;;;5.90;99.90;;;;;;6277535;28;20996;-68
2021/11/10 00:31:50;;;;;;;9.90;8.90;;;5.90;99.90;;;;;;6278042;28;20470;-67
2021/11/10 00:34:54;;;;;;;8.13;7.33;;;5.90;99.90;;;;;;6268607;28;20951;-68
2021/11/10 00:37:58;;;;;;;7.47;6.77;;;5.80;99.90;;;;;;6260093;22;20922;-67
2021/11/10 00:41:01;;;;;;;8.47;7.67;;;5.80;99.90;;;;;;6253324;28;20467;-67
2021/11/10 00:44:04;;;;;;;8.00;7.20;;;5.80;99.90;;;;;;6252438;28;20541;-67
2021/11/10 00:47:07;;;;;;;7.70;6.90;;;5.70;99.90;;;;;;6252850;28;20487;-65
2021/11/10 00:50:12;;;;;;;6.70;6.10;;;5.70;99.90;;;;;;6251556;28;20471;-64
2021/11/10 00:53:15;;;;;;;12.67;8.20;;;5.70;99.90;;;;;;6252761;28;20470;-64
2021/11/10 00:56:18;;;;;;;9.03;6.70;;;5.50;99.90;;;;;;6252670;28;20482;-65
2021/11/10 00:59:22;;;;;;;9.30;6.60;;;5.60;99.90;;;;;;6243789;28;20476;-65
2021/11/10 01:02:25;;;;;;;7.40;6.47;;;5.70;99.90;;;;;;6242067;28;20478;-65
2021/11/10 01:05:31;;;;;;;6.00;5.40;;;5.70;99.90;;;;;;6252312;28;20501;-65
2021/11/10 01:08:34;;;;;;;7.83;7.00;;;5.60;99.90;;;;;;6251991;28;20482;-64
2021/11/10 01:11:37;;;;;;;8.20;6.80;;;5.60;99.90;;;;;;6252140;28;20467;-64
2021/11/10 01:14:41;;;;;;;7.77;6.67;;;5.70;99.90;;;;;;6251889;28;20475;-64
2021/11/10 01:17:44;;;;;;;7.30;6.60;;;5.70;99.90;;;;;;6251996;28;20478;-64
2021/11/10 01:20:49;;;;;;;8.47;6.77;;;5.70;99.90;;;;;;6251672;28;20474;-64
2021/11/10 01:23:54;;;;;;;7.10;6.50;;;5.70;99.90;;;;;;6252018;28;20527;-65
2021/11/10 01:26:57;;;;;;;7.93;6.60;;;5.60;99.90;;;;;;6252253;28;20486;-65
2021/11/10 01:30:01;;;;;;;7.87;6.13;;;5.60;99.90;;;;;;6232010;28;20468;-65
2021/11/10 01:33:04;;;;;;;7.43;6.40;;;5.70;99.90;;;;;;6227704;28;20487;-66
2021/11/10 01:36:09;;;;;;;6.90;6.00;;;5.60;99.90;;;;;;6246112;28;20990;-66
2021/11/10 01:39:13;;;;;;;6.97;6.27;;;5.60;99.90;;;;;;6251782;28;20799;-66
2021/11/10 01:42:16;;;;;;;8.40;6.97;;;5.60;99.90;;;;;;6248568;28;20472;-66
2021/11/10 01:45:20;;;;;;;6.57;5.97;;;5.60;99.90;;;;;;6232456;28;20479;-66
2021/11/10 01:48:24;;;;;;;11.23;6.90;;;5.50;99.90;;;;;;6241909;28;20472;-67
2021/11/10 01:51:28;;;;;;;8.57;6.50;;;5.50;99.90;;;;;;6227180;28;20456;-65
2021/11/10 01:54:34;;;;;;;6.03;5.43;;;5.50;99.90;;;;;;6225514;28;20868;-65
2021/11/10 01:57:37;;;;;;;7.10;6.00;;;5.50;99.90;;;;;;6225401;28;20467;-65
2021/11/10 02:00:44;;;;;;;6.17;5.60;;;5.40;99.90;;;;;;6225146;28;20789;-66
2021/11/10 02:03:49;;;;;;;6.00;4.97;;;5.50;99.90;;;;;;6225340;28;20956;-65
2021/11/10 02:06:54;;;;;;;7.17;6.43;;;5.40;99.90;;;;;;6225667;28;20483;-65
2021/11/10 02:09:57;;;;;;;6.40;5.80;;;5.40;99.90;;;;;;6226177;28;20460;-65
2021/11/10 02:13:01;;;;;;;7.00;6.27;;;5.40;99.90;;;;;;6226297;28;20471;-65
2021/11/10 02:16:04;;;;;;;6.17;5.67;;;5.40;99.90;;;;;;6217238;28;20475;-65
2021/11/10 02:19:07;;;;;;;7.17;5.73;;;5.40;99.90;;;;;;6225954;28;20816;-65
2021/11/10 02:22:14;;;;;;;6.33;5.73;;;5.30;99.90;;;;;;6226654;28;20964;-65
2021/11/10 02:25:17;;;;;;;6.17;5.57;;;5.30;99.90;;;;;;6226220;28;20483;-65
2021/11/10 02:28:21;;;;;;;6.67;5.97;;;5.30;99.90;;;;;;6226026;28;20479;-65
2021/11/10 02:31:24;;;;;;;6.70;5.80;;;5.30;99.90;;;;;;6226028;28;20468;-65
2021/11/10 02:34:27;;;;;;;7.40;5.90;;;5.20;99.90;;;;;;6225725;28;20988;-65
2021/11/10 02:37:32;;;;;;;5.80;5.20;;;5.20;99.90;;;;;;6226104;28;20982;-65
2021/11/10 02:40:36;;;;;;;6.40;5.80;;;5.20;99.90;;;;;;6226464;28;20499;-64
2021/11/10 02:43:39;;;;;;;7.10;6.40;;;5.20;99.90;;;;;;6226495;28;20480;-65
2021/11/10 02:46:43;;;;;;;6.40;5.90;;;5.10;99.90;;;;;;6226494;28;20483;-64
2021/11/10 02:49:47;;;;;;;7.40;6.37;;;5.10;99.90;;;;;;6225900;28;20870;-64
2021/11/10 02:52:52;;;;;;;10.57;7.13;;;5.10;99.90;;;;;;6226442;28;20480;-64
2021/11/10 02:55:55;;;;;;;8.77;5.67;;;5.10;99.90;;;;;;6226504;28;20955;-65
2021/11/10 02:58:58;;;;;;;6.13;5.53;;;5.10;99.90;;;;;;6226824;28;20471;-64
2021/11/10 03:02:03;;;;;;;6.87;6.27;;;5.00;99.90;;;;;;6226736;28;20472;-64
2021/11/10 03:05:07;;;;;;;9.23;6.00;;;5.00;99.90;;;;;;6226672;28;20472;-64
2021/11/10 03:08:11;;;;;;;8.33;6.77;;;4.90;99.90;;;;;;6225661;28;20488;-64
2021/11/10 03:11:15;;;;;;;6.83;6.00;;;4.90;99.90;;;;;;6226043;28;20471;-64
2021/11/10 03:14:19;;;;;;;6.97;5.90;;;4.90;99.90;;;;;;6227254;28;20471;-64
2021/11/10 03:17:22;;;;;;;7.47;6.67;;;4.90;99.90;;;;;;6230637;28;20486;-65
2021/11/10 03:20:25;;;;;;;8.30;7.07;;;4.90;99.90;;;;;;6226284;28;20471;-65
2021/11/10 03:23:30;;;;;;;7.00;6.30;;;4.90;99.90;;;;;;6230058;28;20885;-65
2021/11/10 03:26:34;;;;;;;7.90;6.40;;;4.90;99.90;;;;;;6230450;28;20486;-65
2021/11/10 03:29:38;;;;;;;7.13;6.43;;;4.90;99.90;;;;;;6229985;28;20486;-65
2021/11/10 03:32:42;;;;;;;8.37;7.40;;;4.90;99.90;;;;;;6230038;28;20471;-65
2021/11/10 03:35:45;;;;;;;7.27;6.57;;;4.90;99.90;;;;;;6230069;28;20487;-65
2021/11/10 03:38:50;;;;;;;7.13;6.53;;;4.80;99.90;;;;;;6229999;28;20475;-65
2021/11/10 03:41:53;;;;;;;7.67;6.90;;;4.80;99.90;;;;;;6232803;28;20626;-64
2021/11/10 03:44:56;;;;;;;8.50;6.37;;;4.80;99.90;;;;;;6229986;28;20483;-64
2021/11/10 03:48:00;;;;;;;7.03;5.50;;;4.90;99.90;;;;;;6230153;28;20482;-65
2021/11/10 03:51:03;;;;;;;7.33;6.40;;;4.90;99.90;;;;;;6229995;28;20530;-66
2021/11/10 03:54:08;;;;;;;5.97;5.37;;;4.90;99.90;;;;;;6230027;28;20475;-65
2021/11/10 03:57:12;;;;;;;7.40;6.37;;;4.90;99.90;;;;;;6229644;28;21018;-64
2021/11/10 04:00:15;;;;;;;8.10;7.00;;;4.90;99.90;;;;;;6230122;28;20475;-64
2021/11/10 04:03:19;;;;;;;6.83;5.83;;;4.90;99.90;;;;;;6230579;28;20479;-64
2021/11/10 04:06:22;;;;;;;7.43;5.60;;;4.90;99.90;;;;;;6230371;28;20967;-64
2021/11/10 04:09:26;;;;;;;6.30;5.70;;;4.80;99.90;;;;;;6230699;28;20505;-65
2021/11/10 04:12:29;;;;;;;9.17;6.20;;;4.80;99.90;;;;;;6253400;28;20455;-65
2021/11/10 04:15:33;;;;;;;6.50;5.97;;;4.70;99.90;;;;;;6253455;28;20470;-66
2021/11/10 04:18:36;;;;;;;7.87;6.03;;;4.70;99.90;;;;;;6253919;28;20449;-64
2021/11/10 04:21:40;;;;;;;7.60;5.70;;;4.70;99.90;;;;;;6252843;28;20806;-65
2021/11/10 04:24:45;;;;;;;7.90;6.50;;;4.70;99.90;;;;;;6239986;28;20925;-64
2021/11/10 04:27:48;;;;;;;7.23;6.63;;;4.70;99.90;;;;;;6253170;28;20466;-65
2021/11/10 04:30:53;;;;;;;6.70;6.00;;;4.80;99.90;;;;;;6252596;28;20800;-65
2021/11/10 04:33:59;;;;;;;7.20;6.00;;;4.80;99.90;;;;;;6252819;28;20477;-63
2021/11/10 04:37:04;;;;;;;8.43;6.43;;;4.70;99.90;;;;;;6253334;28;20955;-64
2021/11/10 04:40:11;;;;;;;6.20;5.70;;;4.70;99.90;;;;;;6253913;28;20479;-64
2021/11/10 04:43:14;;;;;;;6.83;5.23;;;4.70;99.90;;;;;;6253189;28;20474;-64
2021/11/10 04:46:21;;;;;;;6.93;6.23;;;4.70;99.90;;;;;;6252734;28;20502;-63
2021/11/10 04:49:27;;;;;;;7.00;6.30;;;4.70;99.90;;;;;;6252533;28;20498;-63
2021/11/10 04:52:31;;;;;;;7.20;6.50;;;4.70;99.90;;;;;;6252962;28;20471;-64
2021/11/10 04:55:35;;;;;;;7.80;5.20;;;4.70;99.90;;;;;;6252948;28;20967;-63
2021/11/10 04:58:39;;;;;;;6.80;6.13;;;4.70;99.90;;;;;;6252801;28;20470;-64
2021/11/10 05:01:50;;;;;;;8.90;5.50;;;4.70;99.90;;;;;;6253067;28;20482;-64
2021/11/10 05:04:55;;;;;;;7.90;5.63;;;4.60;99.90;;;;;;6252984;28;20466;-64
2021/11/10 05:07:58;;;;;;;6.77;6.20;;;4.60;99.90;;;;;;6252958;28;20471;-63
2021/11/10 05:11:03;;;;;;;6.63;5.80;;;4.70;99.90;;;;;;6252778;28;20479;-64
2021/11/10 05:14:06;;;;;;;5.90;5.40;;;4.60;99.90;;;;;;6252054;28;20486;-64
2021/11/10 05:17:09;;;;;;;9.07;5.23;;;4.60;99.90;;;;;;6252364;28;20771;-64
2021/11/10 05:20:12;;;;;;;6.60;5.60;;;4.60;99.90;;;;;;6252428;28;20463;-63
2021/11/10 05:23:16;;;;;;;8.07;6.33;;;4.50;99.90;;;;;;6252039;28;20475;-64
2021/11/10 05:26:21;;;;;;;7.60;6.80;;;4.50;99.90;;;;;;6251537;28;20493;-64
2021/11/10 05:29:24;;;;;;;8.47;7.60;;;4.50;99.90;;;;;;6242691;28;20498;-64
2021/11/10 05:32:27;;;;;;;9.00;7.40;;;4.60;99.90;;;;;;6252140;28;20826;-64
2021/11/10 05:35:30;;;;;;;10.30;6.83;;;4.60;99.90;;;;;;6251752;28;20486;-64
2021/11/10 05:38:34;;;;;;;7.47;6.20;;;4.50;99.90;;;;;;6251652;28;20850;-63
2021/11/10 05:41:38;;;;;;;10.70;7.60;;;4.50;99.90;;;;;;6252016;28;20521;-63
2021/11/10 05:44:41;;;;;;;9.60;7.30;;;4.50;99.90;;;;;;6251654;28;20479;-64
2021/11/10 05:47:45;;;;;;;7.13;6.43;;;4.40;99.90;;;;;;6251224;28;20471;-63
2021/11/10 05:50:48;;;;;;;9.10;7.10;;;4.40;99.90;;;;;;6251465;28;20544;-63
2021/11/10 05:53:53;;;;;;;8.83;7.93;;;4.50;99.90;;;;;;6251393;28;20486;-64
2021/11/10 05:56:58;;;;;;;7.70;6.63;;;4.50;99.90;;;;;;6251474;28;20791;-63
2021/11/10 06:00:01;;;;;;;11.17;7.33;;;4.60;99.90;;;;;;6255176;28;20479;-63
2021/11/10 06:03:04;;;;;;;8.27;7.47;;;4.60;99.90;;;;;;6256982;28;20482;-63
2021/11/10 06:06:08;;;;;;;9.43;7.03;;;4.60;99.90;;;;;;6254205;28;20490;-63
2021/11/10 06:09:11;;;;;;;9.30;7.27;;;4.70;99.90;;;;;;6251238;28;20494;-63
2021/11/10 06:12:15;;;;;;;10.80;7.30;;;4.70;99.90;;;;;;6251144;28;20471;-63
2021/11/10 06:15:19;;;;;;;9.60;7.17;;;4.80;99.90;;;;;;6251505;28;20983;-63
2021/11/10 06:18:22;;;;;;;13.20;7.07;;;4.80;99.90;;;;;;6251646;28;20481;-63
2021/11/10 06:21:25;;;;;;;7.27;6.57;;;4.90;99.90;;;;;;6250898;28;20875;-64
2021/11/10 06:24:29;;;;;;;14.10;9.03;;;4.90;99.90;;;;;;6227275;28;20467;-64
2021/11/10 06:27:33;;;;;;;7.90;6.20;;;5.00;99.90;;;;;;6227204;28;20474;-63
2021/11/10 06:30:36;;;;;;;9.47;6.93;;;5.10;99.90;;;;;;6226222;28;20487;-63
2021/11/10 06:33:40;;;;;;;8.23;7.37;;;5.10;99.90;;;;;;6226100;28;20459;-63
2021/11/10 06:36:43;;;;;;;7.63;6.83;;;5.20;99.90;;;;;;6225944;28;20495;-63
2021/11/10 06:39:46;;;;;;;9.47;6.67;;;5.30;99.90;;;;;;6226099;28;20487;-63
2021/11/10 06:42:51;;;;;;;9.43;7.60;;;5.40;99.90;;;;;;6225716;28;20750;-63
2021/11/10 06:45:54;;;;;;;7.93;7.13;;;5.50;99.90;;;;;;6226183;28;20483;-64
2021/11/10 06:48:58;;;;;;;10.83;7.07;;;5.50;99.90;;;;;;6225469;28;20475;-64
2021/11/10 06:52:04;;;;;;;10.47;7.37;;;5.60;99.90;;;;;;6225770;28;20468;-64
2021/11/10 06:55:08;;;;;;;8.50;6.33;;;5.60;99.90;;;;;;6225757;28;20475;-64
2021/11/10 06:58:13;;;;;;;8.73;7.83;;;5.70;99.90;;;;;;6224250;28;20782;-64
2021/11/10 07:01:16;;;;;;;8.20;6.83;;;5.80;99.90;;;;;;6224792;28;20769;-64
2021/11/10 07:04:19;;;;;;;7.97;7.03;;;5.80;99.90;;;;;;6224393;28;20978;-62
2021/11/10 07:07:22;;;;;;;8.03;7.23;;;5.90;99.90;;;;;;6224693;28;20963;-63
2021/11/10 07:10:25;;;;;;;8.20;7.17;;;6.00;99.90;;;;;;6225572;28;20468;-62
2021/11/10 07:13:30;;;;;;;9.63;6.50;;;6.00;99.90;;;;;;6225632;28;20472;-62
2021/11/10 07:16:33;;;;;;;10.67;7.17;;;6.20;99.90;;;;;;6225657;28;20475;-62
2021/11/10 07:19:37;;;;;;;9.53;6.10;;;6.30;99.90;;;;;;6225573;28;20472;-62
2021/11/10 07:22:41;;;;;;;6.63;5.63;;;6.40;99.90;;;;;;6225725;28;20467;-63
2021/11/10 07:25:44;;;;;;;8.20;7.40;;;6.50;99.90;;;;;;6225217;28;20490;-63
2021/11/10 07:28:49;;;;;;;18.00;7.10;;;6.60;99.90;;;;;;6223887;28;20793;-62
2021/11/10 07:31:52;;;;;;;7.97;6.67;;;6.70;99.90;;;;;;6223663;28;20484;-62
2021/11/10 07:34:56;;;;;;;8.20;7.40;;;6.80;99.90;;;;;;6223838;28;20815;-62
2021/11/10 07:37:59;;;;;;;7.97;7.10;;;6.90;99.60;;;;;;6219195;28;21213;-62
2021/11/10 07:41:02;;;;;;;8.03;6.60;;;7.00;99.40;;;;;;6224067;28;20479;-62
2021/11/10 07:44:08;;;;;;;9.77;7.83;;;7.10;99.40;;;;;;6225340;28;20476;-62
2021/11/10 07:47:14;;;;;;;11.03;7.50;;;7.20;99.40;;;;;;6228283;28;20475;-62
2021/11/10 07:50:20;;;;;;;10.10;7.90;;;7.30;99.10;;;;;;6227815;28;20478;-64
2021/11/10 07:53:23;;;;;;;8.23;6.47;;;7.50;98.80;;;;;;6226082;28;20475;-62
2021/11/10 07:56:26;;;;;;;11.17;7.70;;;7.50;98.50;;;;;;6224746;28;20476;-62
2021/11/10 07:59:31;;;;;;;9.43;7.10;;;7.60;98.30;;;;;;6225896;28;20478;-62
2021/11/10 08:02:34;;;;;;;11.00;7.20;;;7.70;98.30;;;;;;6229989;28;20468;-62
2021/11/10 08:05:38;;;;;;;11.20;8.13;;;7.90;98.20;;;;;;6229434;28;20836;-63
2021/11/10 08:08:41;;;;;;;8.53;7.63;;;8.00;97.90;;;;;;6229419;28;20813;-63
2021/11/10 08:11:44;;;;;;;8.60;7.70;;;8.10;97.60;;;;;;6229051;28;20928;-63
2021/11/10 08:14:49;;;;;;;8.73;7.93;;;8.30;97.30;;;;;;6228920;28;20476;-64
2021/11/10 08:17:52;;;;;;;10.40;8.27;;;8.50;97.00;;;;;;6229241;28;20959;-63
2021/11/10 08:20:57;;;;;;;12.57;8.60;;;8.60;96.70;;;;;;6229371;28;20472;-63
2021/11/10 08:24:02;;;;;;;13.17;8.70;;;8.70;96.30;;;;;;6229934;28;20464;-62
2021/11/10 08:27:06;;;;;;;11.90;9.00;;;8.80;96.30;;;;;;6229804;28;20947;-63
2021/11/10 08:30:12;;;;;;;11.10;8.57;;;8.90;96.20;;;;;;6228688;28;20467;-63
2021/11/10 08:33:16;;;;;;;12.07;9.30;;;9.10;95.60;;;;;;6228777;28;20491;-63
2021/11/10 08:36:19;;;;;;;12.40;9.07;;;9.20;95.20;;;;;;6244593;28;20497;-63
2021/11/10 08:39:23;;;;;;;11.40;9.53;;;9.30;95.00;;;;;;6252666;28;20814;-63
2021/11/10 08:42:32;;;;;;;16.50;9.83;;;9.30;94.80;;;;;;6243527;28;20483;-63
2021/11/10 08:45:38;;;;;;;9.73;8.70;;;9.50;94.70;;;;;;6252594;28;20462;-63
2021/11/10 08:48:42;;;;;;;16.90;11.43;;;9.60;94.20;;;;;;6253267;28;20446;-63
2021/11/10 08:51:45;;;;;;;11.67;9.73;;;9.70;94.10;;;;;;6255518;28;20965;-64
2021/11/10 08:54:49;;;;;;;14.00;9.40;;;9.90;93.90;;;;;;6252947;28;20462;-64
2021/11/10 08:57:53;;;;;;;15.20;9.50;;;9.90;93.60;;;;;;6248963;28;20476;-64
2021/11/10 09:00:59;;;;;;;12.20;9.43;;;10.00;93.00;;;;;;6228114;28;20475;-63
2021/11/10 09:04:02;;;;;;;14.80;10.67;;;10.10;92.40;;;;;;6228118;28;20473;-63
2021/11/10 09:07:07;;;;;;;11.60;10.50;;;10.20;92.10;;;;;;6227893;28;20483;-63
2021/11/10 09:10:13;;;;;;;13.30;9.90;;;10.30;92.00;;;;;;6239351;28;20470;-63
2021/11/10 09:13:16;;;;;;;16.70;10.53;;;10.30;92.10;;;;;;6259362;28;20478;-63
2021/11/10 09:16:20;;;;;;;11.23;10.13;;;10.40;91.90;;;;;;6278782;28;20478;-62
2021/11/10 09:19:24;;;;;;;10.97;9.90;;;10.60;91.70;;;;;;6271287;28;20467;-63
2021/11/10 09:22:27;;;;;;;14.70;11.80;;;10.70;91.30;;;;;;6254966;28;20480;-62
2021/11/10 09:25:31;;;;;;;17.10;10.40;;;10.70;91.20;;;;;;6262942;28;20478;-62
2021/11/10 09:28:36;;;;;;;16.30;11.63;;;10.80;91.30;;;;;;6276207;28;20466;-62
2021/11/10 09:31:41;;;;;;;19.03;12.50;;;11.30;90.90;;;;;;6266153;28;20487;-62
2021/11/10 09:34:44;;;;;;;14.10;12.67;;;11.70;90.30;;;;;;6251744;28;20467;-63
2021/11/10 09:37:49;;;;;;;12.37;11.17;;;12.90;87.80;;;;;;6251563;28;20969;-63
2021/11/10 09:40:53;;;;;;;15.53;11.10;;;14.40;83.70;;;;;;6251741;28;20482;-62
2021/11/10 09:43:59;;;;;;;13.13;11.13;;;16.90;74.20;;;;;;6242284;28;20969;-63
2021/11/10 09:47:04;;;;;;;11.33;10.17;;;19.40;61.40;;;;;;6251404;28;20486;-62
2021/11/10 09:50:10;;;;;;;11.30;10.10;;;21.20;53.60;;;;;;6265197;28;20634;-63
2021/11/10 09:53:13;;;;;;;12.20;10.60;;;22.40;48.20;;;;;;6275903;28;20706;-62
2021/11/10 09:56:17;;;;;;;11.40;10.27;;;23.80;44.90;;;;;;6260696;28;20715;-64
2021/11/10 09:59:20;;;;;;;13.23;11.83;;;25.00;41.00;;;;;;6251400;28;20232;-63
2021/11/10 10:02:25;;;;;;;13.30;11.57;;;26.60;37.80;;;;;;6250596;28;20680;-64
2021/11/10 10:05:31;;;;;;;12.23;11.03;;;28.10;33.90;;;;;;6251060;28;20254;-64
2021/11/10 10:08:34;;;;;;;13.97;12.33;;;28.30;32.40;;;;;;6251019;28;20227;-63
2021/11/10 10:11:38;;;;;;;13.17;11.97;;;28.00;31.40;;;;;;6250547;28;20235;-64
2021/11/10 10:14:41;;;;;;;13.10;11.83;;;27.50;31.90;;;;;;6250998;28;20239;-64
2021/11/10 10:17:48;;;;;;;12.83;11.60;;;27.90;31.70;;;;;;6250917;28;20231;-64
2021/11/10 10:20:57;;;;;;;12.90;11.70;;;28.40;30.50;;;;;;6251027;28;20234;-65
2021/11/10 10:24:00;;;;;;;11.50;10.43;;;28.00;30.10;;;;;;6250575;28;20228;-64
2021/11/10 10:27:22;;;;;;;12.70;11.43;;;26.60;31.40;;;;;;6249515;28;20234;-64
2021/11/10 10:30:30;;;;;;;12.90;11.67;;;25.70;33.20;;;;;;6250897;28;20684;-64
2021/11/10 10:33:37;;;;;;;12.23;10.20;;;25.70;33.60;;;;;;6250264;28;20568;-64
2021/11/10 10:36:43;;;;;;;11.10;10.00;;;26.80;32.80;;;;;;6250034;28;20239;-64
2021/11/10 10:40:09;;;;;;;15.80;10.10;;;27.90;31.50;;;;;;6250595;28;20211;-64
2021/11/10 10:43:12;;;;;;;14.53;9.83;;;28.50;30.00;;;;;;6249905;28;20680;-64
2021/11/10 10:46:16;;;;;;;12.27;10.10;;;28.80;29.80;;;;;;6245099;28;20235;-64
2021/11/10 10:49:24;;;;;;;11.23;10.13;;;28.30;30.00;;;;;;6250107;28;20241;-63
2021/11/10 10:52:27;;;;;;;12.37;11.23;;;27.80;30.20;;;;;;6249889;28;20562;-63
2021/11/10 10:55:35;;;;;;;10.70;9.60;;;28.30;29.90;;;;;;6250310;28;20246;-64
2021/11/10 10:58:40;;;;;;;11.40;10.40;;;27.70;30.30;;;;;;6249505;28;20587;-64
2021/11/10 11:01:45;;;;;;;11.17;10.10;;;28.40;29.90;;;;;;6241567;28;20220;-65
2021/11/10 11:04:51;;;;;;;11.07;9.90;;;28.30;29.80;;;;;;6226241;28;20228;-63
2021/11/10 11:07:54;;;;;;;12.57;11.43;;;29.20;29.50;;;;;;6225686;28;20308;-63
2021/11/10 11:11:01;;;;;;;11.83;10.70;;;27.80;30.30;;;;;;6225924;28;20227;-64
2021/11/10 11:14:06;;;;;;;13.60;12.00;;;29.60;29.70;;;;;;6226299;28;20232;-64
2021/11/10 11:17:25;;;;;;;12.10;11.00;;;31.60;27.80;;;;;;6226669;28;20577;-64
2021/11/10 11:20:32;;;;;;;11.05;10.05;;;33.30;25.90;;;;;;6225159;28;20232;-63
2021/11/10 11:23:42;;;;;;;10.48;9.50;;;34.30;24.90;;;;;;6225241;28;20246;-63
2021/11/10 11:26:45;;;;;;;12.27;11.15;;;35.10;24.30;;;;;;6225040;28;20236;-64
2021/11/10 11:29:55;;;;;;;14.38;12.98;;;33.20;24.90;;;;;;6225090;28;20228;-64
2021/11/10 11:33:00;;;;;;;12.18;10.93;;;33.40;25.10;;;;;;6225503;28;20228;-64
2021/11/10 11:36:05;;;;;;;12.45;11.32;;;34.40;24.20;;;;;;6228329;28;20243;-64
2021/11/10 11:39:08;;;;;;;11.52;10.55;;;35.60;23.40;;;;;;6246719;28;20223;-64
2021/11/10 11:42:11;;;;;;;11.68;10.55;;;35.60;23.00;;;;;;6254181;28;20219;-64
2021/11/10 11:45:17;;;;;;;10.40;9.60;;;35.20;22.90;;;;;;6254257;28;20681;-67
2021/11/10 11:48:21;;;;;;;10.15;9.40;;;35.50;22.70;;;;;;6254147;28;20240;-65
2021/11/10 11:51:27;;;;;;;10.63;9.82;;;34.60;23.20;;;;;;6250009;28;20270;-65
2021/11/10 11:54:31;;;;;;;10.55;9.75;;;34.10;23.50;;;;;;6252688;28;20250;-66
2021/11/10 11:57:35;;;;;;;10.65;9.85;;;33.20;23.80;;;;;;6254048;28;20234;-66
2021/11/10 12:00:40;;;;;;;10.60;9.80;;;31.30;25.20;;;;;;6253953;28;20621;-64
2021/11/10 12:03:46;;;;;;;9.80;8.97;;;29.90;26.40;;;;;;6253847;28;20180;-63
2021/11/10 12:06:52;;;;;;;10.07;9.17;;;28.10;27.70;;;;;;6252734;28;20596;-64
2021/11/10 12:10:28;;;;;;;10.13;9.13;;;27.30;28.50;;;;;;6252972;28;20541;-64
2021/11/10 12:13:31;;;;;;;9.13;8.17;;;26.00;29.40;;;;;;6252649;28;20597;-63
2021/11/10 12:16:56;;;;;;;11.40;9.07;;;24.60;31.40;;;;;;6252952;28;20236;-64
2021/11/10 12:20:04;;;;;;;9.37;8.37;;;23.70;32.90;;;;;;6253782;28;20575;-63
2021/11/10 12:23:20;;;;;;;10.30;9.33;;;23.30;34.60;;;;;;6253684;28;20294;-63
2021/11/10 12:26:27;;;;;;;10.30;9.30;;;25.20;32.80;;;;;;6253665;28;20243;-63
2021/11/10 12:29:42;;;;;;;11.13;8.53;;;27.40;30.40;;;;;;6253378;28;20242;-64
2021/11/10 12:33:00;;;;;;;9.07;8.27;;;29.30;27.80;;;;;;6252962;28;20231;-66
2021/11/10 12:36:03;;;;;;;12.10;9.93;;;30.70;26.10;;;;;;6252770;28;20239;-65
2021/11/10 12:39:09;;;;;;;9.63;8.83;;;29.70;26.40;;;;;;6246506;28;20609;-64
2021/11/10 12:42:15;;;;;;;10.47;9.40;;;27.80;27.70;;;;;;6252685;28;20235;-65
2021/11/10 12:45:22;;;;;;;10.07;9.07;;;25.90;29.70;;;;;;6252251;28;20575;-64
2021/11/10 12:48:34;;;;;;;9.97;9.10;;;24.50;31.40;;;;;;6251769;28;20232;-64
2021/11/10 12:51:39;;;;;;;10.07;9.20;;;23.40;33.00;;;;;;6248226;28;20641;-63
2021/11/10 12:54:46;;;;;;;10.77;9.77;;;22.30;34.50;;;;;;6253038;28;20286;-63
2021/11/10 12:57:50;;;;;;;8.60;7.80;;;20.90;36.70;;;;;;6252836;28;20577;-64
2021/11/10 13:00:55;;;;;;;8.70;7.50;;;20.90;38.00;;;;;;6252823;28;20235;-64
2021/11/10 13:04:00;;;;;;;7.67;7.03;;;23.10;36.00;;;;;;6252443;28;20247;-65
2021/11/10 13:07:09;;;;;;;8.73;7.93;;;25.70;32.80;;;;;;6251990;28;20243;-67
2021/11/10 13:10:16;;;;;;;9.70;8.80;;;28.10;29.90;;;;;;6252567;28;20234;-67
2021/11/10 13:13:19;;;;;;;8.30;7.50;;;28.90;27.80;;;;;;6252168;28;20236;-68
2021/11/10 13:16:22;;;;;;;10.37;8.47;;;28.00;27.90;;;;;;6252072;28;20231;-66
2021/11/10 13:19:38;;;;;;;7.13;6.40;;;26.50;29.10;;;;;;6251879;28;20301;-66
2021/11/10 13:22:43;;;;;;;9.40;8.60;;;25.30;30.30;;;;;;6252494;28;20240;-66
2021/11/10 13:25:48;;;;;;;9.27;7.70;;;24.80;31.30;;;;;;6252062;28;20231;-66
2021/11/10 13:28:54;;;;;;;11.03;8.10;;;24.60;31.70;;;;;;6242264;28;20247;-66
2021/11/10 13:32:10;;;;;;;9.03;8.33;;;24.60;32.50;;;;;;6227931;28;20568;-68
2021/11/10 13:35:14;;;;;;;11.00;8.07;;;25.30;31.90;;;;;;6227062;28;20580;-67
2021/11/10 13:38:17;;;;;;;9.40;8.50;;;25.10;32.40;;;;;;6244585;28;20779;-68
2021/11/10 13:41:34;;;;;;;8.57;7.90;;;24.30;32.50;;;;;;6252288;28;20233;-66
2021/11/10 13:44:37;;;;;;;9.70;8.80;;;23.90;33.70;;;;;;6251840;28;20687;-66
2021/11/10 13:47:53;;;;;;;9.33;8.53;;;23.80;33.60;;;;;;6251510;28;20235;-67
2021/11/10 13:50:56;;;;;;;11.13;8.67;;;23.00;34.20;;;;;;6251960;28;20556;-66
2021/11/10 13:54:05;;;;;;;10.33;7.70;;;22.30;35.40;;;;;;6252426;28;20235;-67
2021/11/10 13:57:17;;;;;;;10.23;8.47;;;21.60;36.60;;;;;;6252380;28;20236;-67
2021/11/10 14:00:23;;;;;;;8.70;7.80;;;20.60;38.00;;;;;;6247327;28;20239;-67
2021/11/10 14:03:30;;;;;;;10.13;8.30;;;19.80;39.60;;;;;;6251285;28;20303;-66
2021/11/10 14:06:33;;;;;;;8.37;7.27;;;19.00;41.00;;;;;;6251316;28;20239;-66
2021/11/10 14:09:40;;;;;;;8.10;7.40;;;18.30;42.50;;;;;;6251239;28;20205;-66
2021/11/10 14:12:47;;;;;;;7.73;7.03;;;17.60;43.70;;;;;;6250549;28;20431;-66
2021/11/10 14:15:50;;;;;;;8.50;6.80;;;17.00;45.10;;;;;;6251156;28;20455;-66
2021/11/10 14:18:53;;;;;;;7.97;7.17;;;16.20;46.80;;;;;;6250627;28;20989;-65
2021/11/10 14:22:00;;;;;;;7.80;7.07;;;15.70;48.30;;;;;;6249688;28;20474;-65
2021/11/10 14:25:07;;;;;;;7.50;6.80;;;15.10;50.00;;;;;;6249268;28;20471;-65
2021/11/10 14:28:16;;;;;;;9.07;8.10;;;14.80;51.00;;;;;;6249253;28;20481;-66
2021/11/10 14:31:23;;;;;;;8.07;7.37;;;14.50;52.30;;;;;;6249569;28;20482;-65
2021/11/10 14:34:30;;;;;;;7.50;6.53;;;14.30;53.10;;;;;;6249069;28;20550;-67
2021/11/10 14:37:38;;;;;;;9.10;7.63;;;14.10;53.70;;;;;;6242331;28;20486;-66
2021/11/10 14:40:47;;;;;;;8.77;7.87;;;13.70;54.90;;;;;;6238641;28;20482;-66
2021/11/10 14:43:57;;;;;;;9.40;8.40;;;13.40;56.20;;;;;;6232714;28;20458;-66
2021/11/10 14:47:01;;;;;;;7.70;7.10;;;13.20;57.00;;;;;;6250008;28;20486;-66
2021/11/10 14:50:05;;;;;;;9.27;7.80;;;13.10;58.30;;;;;;6250470;28;20471;-67
2021/11/10 14:53:15;;;;;;;7.27;6.57;;;13.00;59.20;;;;;;6250047;28;20482;-66
2021/11/10 14:56:19;;;;;;;8.47;7.50;;;12.80;60.20;;;;;;6249776;28;20943;-65
2021/11/10 14:59:25;;;;;;;8.93;8.03;;;12.60;61.50;;;;;;6249978;28;20489;-66
2021/11/10 15:02:32;;;;;;;9.27;7.97;;;12.60;63.80;;;;;;6245484;28;20777;-65
2021/11/10 15:05:40;;;;;;;8.90;8.00;;;12.50;64.60;;;;;;6250473;28;20506;-65
2021/11/10 15:08:53;;;;;;;8.77;7.90;;;12.50;65.50;;;;;;6249443;28;20479;-66
2021/11/10 15:11:58;;;;;;;8.87;7.90;;;12.50;66.40;;;;;;6249745;28;20489;-68
2021/11/10 15:15:03;;;;;;;9.27;8.20;;;12.40;67.00;;;;;;6232586;28;20482;-65
2021/11/10 15:18:10;;;;;;;8.47;7.57;;;12.20;68.50;;;;;;6225746;28;20482;-66
2021/11/10 15:21:20;;;;;;;9.67;8.80;;;12.10;70.70;;;;;;6228680;28;20475;-66
2021/11/10 15:24:23;;;;;;;10.20;9.20;;;12.10;72.50;;;;;;6249720;28;20478;-67
2021/11/10 15:27:26;;;;;;;10.23;9.10;;;12.00;73.50;;;;;;6237501;28;20468;-64
2021/11/10 15:30:33;;;;;;;12.47;11.23;;;11.90;75.70;;;;;;6235448;28;20979;-65
2021/11/10 15:33:36;;;;;;;16.30;11.73;;;11.80;77.70;;;;;;6228958;28;20448;-66
2021/11/10 15:36:40;;;;;;;11.03;10.00;;;11.70;80.20;;;;;;6253418;28;20478;-66
2021/11/10 15:39:43;;;;;;;13.93;10.47;;;11.60;83.10;;;;;;6274214;28;20446;-67
2021/11/10 15:42:47;;;;;;;12.50;10.87;;;11.40;85.60;;;;;;6274703;28;20489;-67
2021/11/10 15:45:52;;;;;;;11.70;10.30;;;11.30;87.70;;;;;;6274479;28;20482;-67
2021/11/10 15:48:55;;;;;;;13.10;10.50;;;11.20;89.50;;;;;;6274796;28;20536;-67
2021/11/10 15:52:00;;;;;;;13.23;11.23;;;11.20;90.40;;;;;;6274647;28;20567;-66
2021/11/10 15:55:03;;;;;;;12.97;11.63;;;11.10;91.00;;;;;;6274062;28;20481;-66
2021/11/10 15:58:07;;;;;;;13.10;10.80;;;11.10;91.60;;;;;;6272819;28;20466;-66
2021/11/10 16:01:12;;;;;;;17.60;12.30;;;11.10;92.00;;;;;;6274202;28;20481;-67